Tiempo atmosférico en la estación meteorológica de Las Palmas de Gran Canaria, Tafira, Las Palmas (269 m.)



Fecha
DESCASC
Temp. máxima en grados centígrados (hora)
DESCASC
Temp. mínima en grados centígrados (hora)
DESCASC
Temp. media en grados centígrados
DESCASC
Racha de viento máxima en m/sg (hora)
DESCASC
Velocidad máxima media en intervalos de 10 minutos(hora)
DESCASC
Precipitaciones diarias en mm
DESCASC
Precipitaciones de 00:00 a 06:00 en mm
DESCASC
Precipitaciones de 06:00 a 12:00 en mm
DESCASC
Precipitaciones de 12:00 a 18:00 en mm
DESCASC
Precipitaciones de 18:00 a 24:00 en mm
DESCASC
29-10-2020 21.3 (12:30) 17.7 (06:40) 19.5 7.78 (14:30) 4.72 (19:40) 0 0 0 0 0
28-10-2020 20.3 (12:30) 18.1 (07:30) 19.2 7.5 (11:50) 4.17 (15:00) 0 0 0 0 0
27-10-2020 21.2 (14:20) 17.8 (00:00) 19.5 8.89 (12:20) 4.17 (12:20) 0 0 0 0 0
26-10-2020 21.8 (14:00) 17.5 (00:00) 19.6 6.11 (16:30) 3.61 (12:30) 0 0 0 0 0
25-10-2020 20.5 (10:40) 16.9 (00:00) 18.7 6.94 (13:20) 3.89 (12:20) 0 0 0 0 0
24-10-2020 21 (13:30) 16.3 (00:00) 18.6 6.39 (12:40) 3.33 (14:20) 0 0 0 0 0
23-10-2020 21.2 (13:00) 15.5 (00:00) 18.4 6.67 (12:30) 3.33 (12:20) 0 0 0 0 0
22-10-2020 20.7 (13:50) 16.6 (00:00) 18.7 9.17 (14:10) 4.72 (16:40) 25.6 20.6 4.8 0 0.2
21-10-2020 22.7 (11:00) 17.4 (00:00) 20.1 7.78 (14:50) 5 (14:50) 11.2 0 0 6.2 5
20-10-2020 29.2 (13:50) 20.2 (00:00) 24.7 15 (14:10) 6.39 (14:10) 0 0 0 0 0
19-10-2020 25.1 (15:00) 17 (00:00) 21.1 5.28 (15:40) 3.06 (15:30) 0 0 0 0 0
18-10-2020 23.2 (13:00) 16.4 (00:00) 19.8 7.78 (13:30) 3.89 (12:50) 0 0 0 0 0
17-10-2020 20.6 (14:10) 17.3 (00:00) 18.9 5.83 (13:40) 2.5 (13:30) 0 0 0 0 0
16-10-2020 22.5 (16:10) 19.1 (00:00) 20.8 6.11 (15:10) 3.06 (11:10) 0 0 0 0 0
15-10-2020 23 (14:00) 18.2 (00:00) 20.6 6.94 (11:00) 3.61 (11:30) 0 0 0 0 0
14-10-2020 24 (12:50) 17.8 (00:00) 20.9 5.83 (15:00) 3.06 (13:40) 0 0 0 0 0
13-10-2020 27.8 (14:20) 19.7 (00:00) 23.8 5.28 (09:10) 3.33 (11:50) 0 0 0 0 0
12-10-2020 28.3 (15:40) 18.8 (00:00) 23.5 5.28 (01:20) 2.78 (12:30) 0 0 0 0 0
11-10-2020 23.5 (16:40) 19.8 (00:00) 21.6 6.11 (02:30) 3.89 (18:20) 0 0 0 0 0
10-10-2020 23 (16:00) 19.4 (00:00) 21.2 7.22 (02:40) 4.44 (02:30) 0 0 0 0 0
09-10-2020 23.1 (16:00) 20 (00:00) 21.6 8.89 (19:20) 5.28 (16:50) 0 0 0 0 0
08-10-2020 26 (14:10) 17.8 (00:00) 21.9 6.11 (21:20) 3.33 (20:30) 0 0 0 0 0
07-10-2020 24.7 (15:20) 17.9 (00:00) 21.3 4.44 (14:40) 2.5 (14:00) 0 0 0 0 0
06-10-2020 21.5 (14:20) 19.2 (00:00) 20.4 5.28 (00:50) 2.5 (00:50) 0.2 0 0.2 0 0
05-10-2020 23 (14:50) 18.5 (00:00) 20.8 6.39 (16:30) 3.06 (11:50) 0.4 0.2 0.2 0 0
04-10-2020 21.2 (15:40) 18.6 (00:00) 19.9 8.89 (16:40) 5 (16:40) 9.8 2 7 0.8 0
03-10-2020 22.6 (14:20) 18.2 (00:00) 20.4 11.67 (08:30) 6.67 (08:30) 1.2 0 0.4 0 0.8
02-10-2020 23.5 (14:40) 17.9 (00:00) 20.7 12.78 (16:00) 6.11 (16:00) 1.4 0.2 0 0.2 1
01-10-2020 23.5 (13:20) 19.4 (00:00) 21.4 8.89 (14:30) 5.28 (14:20) 0 0 0 0 0
30-09-2020 24 (14:00) 18.5 (00:00) 21.3 8.33 (16:20) 4.17 (16:30) 0 0 0 0 0

Gráficas

Temp. máximas Temp. mínimas Temp. medias Precipitaciones Rachas de viento máximas Velocidades máximas media en intervalos de 10 minutos

Datos horarios

Fecha y hora oficial Temperatura (ºC) Velocidad del viento (km/h) Dirección del viento Racha (km/h) Dirección de racha Precipitación (mm) Presión (hPa) Tendencia (hPa) Humedad (%)
2020-10-29 23:00:00 18.7 10 Noroeste 22 Noroeste 0 -- -- 87
2020-10-29 22:00:00 18.5 12 Oeste 22 Noroeste 0 -- -- 87
2020-10-29 21:00:00 18.6 12 Noroeste 24 Noroeste 0 -- -- 86
2020-10-29 20:00:00 18.9 15 Noroeste 26 Noroeste 0 -- -- 84
2020-10-29 19:00:00 19 15 Noroeste 23 Noroeste 0 -- -- 84
2020-10-29 18:00:00 19.3 12 Noroeste 26 Noroeste 0 -- -- 84
2020-10-29 17:00:00 19.7 15 Noroeste 25 Noroeste 0 -- -- 82
2020-10-29 16:00:00 20.1 13 Noroeste 23 Noroeste 0 -- -- 78
2020-10-29 15:00:00 20.1 14 Noroeste 28 Noroeste 0 -- -- 73
2020-10-29 14:00:00 21.2 12 Norte 25 Noroeste 0 -- -- 73
2020-10-29 13:00:00 21.3 12 Norte 23 Noroeste 0 -- -- 71
2020-10-29 12:00:00 20.9 13 Noroeste 24 Noroeste 0 -- -- 71
2020-10-29 11:00:00 20.5 12 Noroeste 22 Norte 0 -- -- 72
2020-10-29 10:00:00 19.3 13 Noroeste 21 Norte 0 -- -- 77
2020-10-29 09:00:00 19.1 11 Norte 19 Norte 0 -- -- 78
2020-10-29 08:00:00 18.6 8 Norte 20 Noroeste 0 -- -- 74
2020-10-29 07:00:00 17.9 7 Noroeste 14 Sudoeste 0 -- -- 84
2020-10-29 06:00:00 17.8 5 Oeste 10 Oeste 0 -- -- 86
2020-10-29 05:00:00 18 6 Noroeste 14 Noroeste 0 -- -- 83
2020-10-29 04:00:00 18.4 8 Noroeste 14 Norte 0 -- -- 79
2020-10-29 03:00:00 18.2 6 Noroeste 14 Noroeste 0 -- -- 81
2020-10-29 02:00:00 18.2 7 Noroeste 15 Noroeste 0 -- -- 81
2020-10-29 01:00:00 18.5 7 Noroeste 17 Noroeste 0 -- -- 75
2020-10-29 00:00:00 18.1 6 Noroeste 19 Norte 0 -- -- 80
2020-10-28 23:00:00 18.7 7 Noroeste 22 Noroeste 0 -- -- 76
2020-10-28 22:00:00 18.7 9 Noroeste 21 Noroeste 0 -- -- 76
2020-10-28 21:00:00 18.5 8 Noroeste 19 Noroeste 0 -- -- 79
2020-10-28 20:00:00 18.6 5 Norte 19 Noroeste 0 -- -- 77
2020-10-28 19:00:00 18.8 10 Norte 21 Noroeste 0 -- -- 72
2020-10-28 18:00:00 19 11 Noroeste 22 Noroeste 0 -- -- 70
2020-10-28 17:00:00 19.3 12 Norte 23 Noroeste 0 -- -- 68
2020-10-28 16:00:00 19.3 12 Noroeste 24 Noroeste 0 -- -- 72
2020-10-28 15:00:00 19.9 15 Noroeste 24 Noroeste 0 -- -- 75
2020-10-28 14:00:00 19.4 13 Noroeste 27 Noroeste 0 -- -- 77
2020-10-28 13:00:00 20 14 Noroeste 24 Norte 0 -- -- 69
2020-10-28 12:00:00 19.1 14 Noroeste 27 Noroeste 0 -- -- 75
2020-10-28 11:00:00 18.7 10 Norte 22 Noroeste 0 -- -- 76
2020-10-28 10:00:00 18.7 12 Norte 20 Norte 0 -- -- 76
2020-10-28 09:00:00 18.4 6 Norte 16 Norte 0 -- -- 75
2020-10-28 08:00:00 18.3 7 Norte 14 Norte 0 -- -- 77
2020-10-28 07:00:00 18.2 4 Noroeste 15 Noroeste 0 -- -- 70
2020-10-28 06:00:00 18.3 8 Noroeste 18 Norte 0 -- -- 67
2020-10-28 05:00:00 18.3 6 Noroeste 17 Noroeste 0 -- -- 72
2020-10-28 04:00:00 18.3 8 Noroeste 14 Noroeste 0 -- -- 72
2020-10-28 03:00:00 18.3 9 Noroeste 21 Norte 0 -- -- 70
2020-10-28 02:00:00 18.4 7 Noroeste 21 Norte 0 -- -- 71
2020-10-28 01:00:00 18.6 6 Noroeste 17 Norte 0 -- -- 72
2020-10-28 00:00:00 18.7 6 Norte 17 Noroeste 0 -- -- 70
2020-10-27 23:00:00 18.7 9 Norte 18 Noroeste 0 -- -- 73
2020-10-27 22:00:00 18.9 10 Norte 19 Norte 0 -- -- 73
2020-10-27 21:00:00 18.8 7 Norte 17 Norte 0 -- -- 76
2020-10-27 20:00:00 18.9 5 Norte 16 Noroeste 0 -- -- 79
2020-10-27 19:00:00 19.1 3 Norte 18 Noroeste 0 -- -- 80
2020-10-27 18:00:00 19.4 5 Norte 21 Noroeste 0 -- -- 78
2020-10-27 17:00:00 20.1 7 Noroeste 21 Norte 0 -- -- 76
2020-10-27 16:00:00 20.3 9 Norte 21 Norte 0 -- -- 74
2020-10-27 15:00:00 20.1 8 Nordeste 21 Norte 0 -- -- 78
2020-10-27 14:00:00 21.1 12 Noroeste 23 Norte 0 -- -- 73
2020-10-27 13:00:00 20.8 11 Noroeste 32 Noroeste 0 -- -- 70
2020-10-27 12:00:00 20.6 13 Noroeste 24 Norte 0 -- -- 74
2020-10-27 11:00:00 19.6 14 Norte 23 Norte 0 -- -- 80
2020-10-27 10:00:00 19.8 6 Norte 18 Noroeste 0 -- -- 82
2020-10-27 09:00:00 19 6 Noroeste 10 Oeste 0 -- -- 87
2020-10-27 08:00:00 18.3 4 Oeste 8 Oeste 0 -- -- 81
2020-10-27 07:00:00 17.8 3 Oeste 8 Oeste 0 -- -- 83
2020-10-27 06:00:00 18.2 4 Oeste 10 Noroeste 0 -- -- 88
2020-10-27 05:00:00 18.3 3 Oeste 6 Oeste 0 -- -- 87
2020-10-27 04:00:00 18.3 3 Sudoeste 7 Sudoeste 0 -- -- 86
2020-10-27 03:00:00 18.4 3 Oeste 10 Noroeste 0 -- -- 87
2020-10-27 02:00:00 18.3 3 Oeste 9 Sudoeste 0 -- -- 88
2020-10-27 01:00:00 18.5 2 Noroeste 7 Noroeste 0 -- -- 85
2020-10-27 00:00:00 18.6 3 Sudoeste 8 Sudoeste 0 -- -- 84
2020-10-26 23:00:00 18.6 0 Calma 10 Noroeste 0 -- -- 84
2020-10-26 22:00:00 18.6 3 Oeste 8 Oeste 0 -- -- 84
2020-10-26 21:00:00 18.5 4 Noroeste 13 Noroeste 0 -- -- 83
2020-10-26 20:00:00 19.1 9 Noroeste 17 Noroeste 0 -- -- 82
2020-10-26 19:00:00 19.1 8 Noroeste 17 Noroeste 0 -- -- 81
2020-10-26 18:00:00 19.8 5 Norte 15 Norte 0 -- -- 77
2020-10-26 17:00:00 19.9 9 Nordeste 22 Noroeste 0 -- -- 75
2020-10-26 16:00:00 20.6 7 Norte 18 Nordeste 0 -- -- 70
2020-10-26 15:00:00 21 10 Nordeste 21 Este 0 -- -- 68
2020-10-26 14:00:00 21.8 8 Nordeste 19 Nordeste 0 -- -- 67
2020-10-26 13:00:00 21.1 7 Norte 21 Nordeste 0 -- -- 65
2020-10-26 12:00:00 20.6 8 Norte 19 Nordeste 0 -- -- 71
2020-10-26 11:00:00 20 8 Norte 21 Nordeste 0 -- -- 71
2020-10-26 10:00:00 19.7 6 Norte 20 Noroeste 0 -- -- 71
2020-10-26 09:00:00 18.8 6 Norte 14 Noroeste 0 -- -- 76
2020-10-26 08:00:00 18.1 5 Noroeste 14 Norte 0 -- -- 77
2020-10-26 07:00:00 17.9 4 Norte 14 Noroeste 0 -- -- 79
2020-10-26 06:00:00 17.5 5 Noroeste 9 Noroeste 0 -- -- 80
2020-10-26 05:00:00 17.9 4 Noroeste 13 Norte 0 -- -- 79
2020-10-26 04:00:00 18.3 8 Norte 14 Norte 0 -- -- 77
2020-10-26 03:00:00 18.3 7 Noroeste 13 Norte 0 -- -- 78
2020-10-26 02:00:00 18.3 3 Norte 16 Noroeste 0 -- -- 78
2020-10-26 01:00:00 18.2 5 Noroeste 13 Noroeste 0 -- -- 78
2020-10-26 00:00:00 18.5 6 Norte 15 Noroeste 0 -- -- 77
2020-10-25 23:00:00 18.5 7 Noroeste 17 Noroeste 0 -- -- 78
2020-10-25 22:00:00 18.6 8 Noroeste 16 Noroeste 0 -- -- 77
2020-10-25 21:00:00 18.7 9 Norte 17 Noroeste 0 -- -- 76
2020-10-25 20:00:00 18.8 7 Norte 15 Noroeste 0 -- -- 78
2020-10-25 19:00:00 18.8 9 Norte 18 Noroeste 0 -- -- 76
2020-10-25 18:00:00 19.1 9 Norte 19 Noroeste 0 -- -- 75
2020-10-25 17:00:00 19.5 10 Noroeste 22 Noroeste 0 -- -- 74
2020-10-25 16:00:00 19.8 9 Norte 19 Nordeste 0 -- -- 73
2020-10-25 15:00:00 20.1 10 Norte 20 Noroeste 0 -- -- 72
2020-10-25 14:00:00 20.5 11 Norte 25 Norte 0 -- -- 69
2020-10-25 13:00:00 20.2 12 Noroeste 23 Noroeste 0 -- -- 70
2020-10-25 12:00:00 20.2 10 Noroeste 19 Noroeste 0 -- -- 72
2020-10-25 11:00:00 20.1 6 Norte 21 Noroeste 0 -- -- 69
2020-10-25 10:00:00 19.3 8 Noroeste 16 Noroeste 0 -- -- 74
2020-10-25 09:00:00 18.5 5 Noroeste 10 Noroeste 0 -- -- 78
2020-10-25 08:00:00 17.3 4 Oeste 10 Noroeste 0 -- -- 81
2020-10-25 07:00:00 17.1 3 Oeste 10 Noroeste 0 -- -- 80
2020-10-25 06:00:00 17.3 2 Sudoeste 7 Oeste 0 -- -- 80
2020-10-25 05:00:00 17.5 4 Oeste 8 Oeste 0 -- -- 80
2020-10-25 04:00:00 17.4 3 Oeste 6 Sudoeste 0 -- -- 79
2020-10-25 03:00:00 17.7 3 Noroeste 8 Norte 0 -- -- 77
2020-10-25 02:00:00 18.2 4 Norte 14 Norte 0 -- -- 75
2020-10-25 01:00:00 18.7 5 Nordeste 16 Norte 0 -- -- 73
2020-10-25 00:00:00 18.8 6 Noroeste 14 Noroeste 0 -- -- 77
2020-10-24 23:00:00 19 5 Norte 14 Norte 0 -- -- 77
2020-10-24 22:00:00 19.1 6 Norte 14 Nordeste 0 -- -- 75
2020-10-24 21:00:00 19.2 5 Norte 14 Norte 0 -- -- 75
2020-10-24 20:00:00 19.2 6 Norte 13 Norte 0 -- -- 76
2020-10-24 19:00:00 19.6 8 Nordeste 19 Este 0 -- -- 73
2020-10-24 18:00:00 19.9 7 Norte 17 Nordeste 0 -- -- 72
2020-10-24 17:00:00 20.5 10 Nordeste 19 Norte 0 -- -- 68
2020-10-24 16:00:00 20.5 10 Nordeste 20 Nordeste 0 -- -- 69
2020-10-24 15:00:00 20.8 8 Nordeste 21 Norte 0 -- -- 62
2020-10-24 14:00:00 20.9 9 Nordeste 22 Nordeste 0 -- -- 66
2020-10-24 13:00:00 20.7 6 Nordeste 23 Nordeste 0 -- -- 67
2020-10-24 12:00:00 19.9 8 Norte 20 Nordeste 0 -- -- 70
2020-10-24 11:00:00 19.6 8 Nordeste 18 Noroeste 0 -- -- 66
2020-10-24 10:00:00 17.6 4 Sudoeste 9 Oeste 0 -- -- 78
2020-10-24 09:00:00 17 4 Sudoeste 11 Sudoeste 0 -- -- 77
2020-10-24 08:00:00 16.6 4 Sudoeste 13 Oeste 0 -- -- 78
2020-10-24 07:00:00 16.7 4 Oeste 9 Sudoeste 0 -- -- 79
2020-10-24 06:00:00 16.3 5 Sudoeste 10 Sur 0 -- -- 79
2020-10-24 05:00:00 16.4 4 Sudoeste 8 Sudoeste 0 -- -- 80
2020-10-24 04:00:00 16.9 0 Calma 9 Noroeste 0 -- -- 78
2020-10-24 03:00:00 18 4 Nordeste 15 Este 0 -- -- 75
2020-10-24 02:00:00 18 3 Este 10 Este 0 -- -- 80
2020-10-24 01:00:00 18.2 3 Nordeste 14 Nordeste 0 -- -- 75
2020-10-24 00:00:00 18.3 6 Nordeste 15 Nordeste 0 -- -- 75
2020-10-23 23:00:00 18.6 5 Este 18 Nordeste 0 -- -- 74
2020-10-23 22:00:00 18.7 6 Nordeste 18 Nordeste 0 -- -- 74
2020-10-23 21:00:00 18.7 6 Nordeste 16 Nordeste 0 -- -- 72
2020-10-23 20:00:00 18.6 5 Nordeste 17 Nordeste 0 -- -- 69
2020-10-23 19:00:00 19.1 7 Nordeste 17 Nordeste 0 -- -- 70
2020-10-23 18:00:00 19.4 7 Nordeste 17 Nordeste 0 -- -- 67
2020-10-23 17:00:00 19.8 8 Nordeste 20 Nordeste 0 -- -- 69
2020-10-23 16:00:00 20.3 9 Nordeste 21 Nordeste 0 -- -- 66
2020-10-23 15:00:00 20.3 10 Nordeste 23 Nordeste 0 -- -- 67
2020-10-23 14:00:00 20.9 10 Nordeste 22 Nordeste 0 -- -- 64
2020-10-23 13:00:00 21.2 10 Nordeste 24 Nordeste 0 -- -- 60
2020-10-23 12:00:00 20.7 9 Nordeste 22 Norte 0 -- -- 66
2020-10-23 11:00:00 19.4 8 Nordeste 17 Nordeste 0 -- -- 71
2020-10-23 10:00:00 17.7 4 Sudoeste 10 Sudoeste 0 -- -- 77
2020-10-23 09:00:00 16.3 8 Sudoeste 11 Sur 0 -- -- 80
2020-10-23 08:00:00 15.8 4 Sudoeste 9 Sudoeste 0 -- -- 82
2020-10-23 07:00:00 15.9 4 Sudoeste 8 Sudoeste 0 -- -- 84
2020-10-23 06:00:00 15.9 4 Sudoeste 9 Sudoeste 0 -- -- 84
2020-10-23 05:00:00 16.1 5 Sudoeste 10 Oeste 0 -- -- 85
2020-10-23 04:00:00 16.5 5 Sudoeste 9 Sudoeste 0 -- -- 83
2020-10-23 03:00:00 16.5 5 Sudoeste 12 Sudoeste 0 -- -- 84
2020-10-23 02:00:00 16.8 4 Sudoeste 9 Sudoeste 0 -- -- 83
2020-10-23 01:00:00 16.7 4 Sudoeste 7 Sudoeste 0 -- -- 83
2020-10-23 00:00:00 16.8 3 Sudoeste 8 Sudoeste 0 -- -- 84
2020-10-22 23:00:00 17.1 3 Oeste 9 Sur 0 -- -- 85
2020-10-22 22:00:00 17.3 4 Sudoeste 16 Sur 0.2 -- -- 85
2020-10-22 21:00:00 18.2 6 Noroeste 13 Noroeste 0 -- -- 79
2020-10-22 20:00:00 18.7 6 Noroeste 17 Noroeste 0 -- -- 74
2020-10-22 19:00:00 19 9 Noroeste 23 Noroeste 0 -- -- 74
2020-10-22 18:00:00 19.3 12 Noroeste 26 Noroeste 0 -- -- 70
2020-10-22 17:00:00 20.1 15 Noroeste 28 Noroeste 0 -- -- 67
2020-10-22 16:00:00 19.7 15 Noroeste 30 Noroeste 0 -- -- 72
2020-10-22 15:00:00 19.7 16 Noroeste 33 Oeste 0 -- -- 75
2020-10-22 14:00:00 20.4 14 Noroeste 29 Noroeste 0 -- -- 70
2020-10-22 13:00:00 19.8 15 Noroeste 30 Noroeste 0 -- -- 73
2020-10-22 12:00:00 18.9 14 Noroeste 24 Noroeste 0 -- -- 80
2020-10-22 11:00:00 17.4 9 Sudoeste 19 Noroeste 1.2 -- -- 91
2020-10-22 10:00:00 17.3 5 Oeste 16 Oeste 1.2 -- -- 92
2020-10-22 09:00:00 17.2 5 Oeste 19 Oeste 0 -- -- 91
2020-10-22 08:00:00 16.7 6 Oeste 30 Oeste 2.2 -- -- 94
2020-10-22 07:00:00 16.9 7 Oeste 24 Oeste 0.2 -- -- 92
2020-10-22 06:00:00 16.7 9 Sudoeste 22 Oeste 0.4 -- -- 93
2020-10-22 05:00:00 16.9 4 Sudoeste 14 Sudoeste 0.6 -- -- 92
2020-10-22 04:00:00 16.9 11 Oeste 23 Oeste 0.2 -- -- 90
2020-10-22 03:00:00 16.8 5 Sudoeste 18 Oeste 2.4 -- -- 95
2020-10-22 02:00:00 16.8 7 Sudoeste 17 Sudoeste 3.6 -- -- 94
2020-10-22 01:00:00 16.8 8 Oeste 20 Oeste 13.4 -- -- 95
2020-10-22 00:00:00 17.4 3 Oeste 13 Oeste 2.8 -- -- 95
2020-10-21 23:00:00 18.1 4 Oeste 11 Oeste 0.2 -- -- 93
2020-10-21 22:00:00 17.9 7 Oeste 12 Oeste 0.4 -- -- 93
2020-10-21 21:00:00 18.1 7 Noroeste 14 Noroeste 0.6 -- -- 93
2020-10-21 20:00:00 18.3 7 Noroeste 13 Noroeste 0.2 -- -- 92
2020-10-21 19:00:00 19 3 Noroeste 9 Noroeste 0.8 -- -- 90
2020-10-21 18:00:00 19.2 7 Noroeste 19 Noroeste 0 -- -- 87
2020-10-21 17:00:00 18.9 10 Noroeste 21 Oeste 4.6 -- -- 90
2020-10-21 16:00:00 19.5 9 Noroeste 28 Noroeste 1.6 -- -- 87
2020-10-21 15:00:00 20.8 14 Noroeste 28 Noroeste 0 -- -- 77
2020-10-21 14:00:00 21.7 12 Noroeste 22 Noroeste 0 -- -- 69
2020-10-21 13:00:00 21.8 8 Norte 18 Norte 0 -- -- 71
2020-10-21 12:00:00 21.1 10 Norte 19 Norte 0 -- -- 78
2020-10-21 11:00:00 22.7 5 Nordeste 10 Este 0 -- -- 72
2020-10-21 10:00:00 21.4 3 Sudeste 10 Sur 0 -- -- 74
2020-10-21 09:00:00 18.9 6 Sur 11 Sur 0 -- -- 79
2020-10-21 08:00:00 18.6 6 Sur 11 Sur 0 -- -- 80
2020-10-21 07:00:00 19.2 2 Sudoeste 6 Sudoeste 0 -- -- 82
2020-10-21 06:00:00 19.2 3 Sudoeste 7 Oeste 0 -- -- 82
2020-10-21 05:00:00 19.8 4 Oeste 9 Noroeste 0 -- -- 79
2020-10-21 04:00:00 20.2 4 Noroeste 10 Noroeste 0 -- -- 78
2020-10-21 03:00:00 20.4 8 Noroeste 15 Oeste 0 -- -- 76
2020-10-21 02:00:00 20.5 6 Noroeste 18 Oeste 0 -- -- 79
2020-10-21 01:00:00 20.6 9 Noroeste 20 Noroeste 0 -- -- 84
2020-10-21 00:00:00 20.8 9 Noroeste 17 Noroeste 0 -- -- 84
2020-10-20 23:00:00 21 8 Oeste 18 Oeste 0 -- -- 84
2020-10-20 22:00:00 21.1 9 Noroeste 26 Oeste 0 -- -- 84
2020-10-20 21:00:00 21.3 12 Noroeste 23 Noroeste 0 -- -- 86
2020-10-20 20:00:00 21.4 14 Oeste 26 Noroeste 0 -- -- 82
2020-10-20 19:00:00 22.1 16 Noroeste 29 Noroeste 0 -- -- 83
2020-10-20 18:00:00 22.9 15 Noroeste 37 Noroeste 0 -- -- 78
2020-10-20 17:00:00 27.5 20 Noroeste 39 Oeste 0 -- -- 60
2020-10-20 16:00:00 28 13 Noroeste 36 Noroeste 0 -- -- 52
2020-10-20 15:00:00 29 17 Sudoeste 54 Oeste 0 -- -- 49
2020-10-20 14:00:00 28.9 23 Oeste 50 Oeste 0 -- -- 43
2020-10-20 13:00:00 28.1 14 Sudoeste 36 Oeste 0 -- -- 41
2020-10-20 12:00:00 27.3 17 Sudoeste 35 Sudoeste 0 -- -- 43
2020-10-20 11:00:00 28.3 8 Sudoeste 27 Sudoeste 0 -- -- 39
2020-10-20 10:00:00 27.4 10 Sudoeste 28 Oeste 0 -- -- 40
2020-10-20 09:00:00 21.8 2 Sudeste 9 Sudoeste 0 -- -- 66
2020-10-20 08:00:00 20.8 5 Sur 10 Oeste 0 -- -- 70
2020-10-20 07:00:00 20.7 4 Este 10 Sudeste 0 -- -- 83
2020-10-20 06:00:00 20.4 5 Sur 12 Oeste 0 -- -- 77
2020-10-20 05:00:00 20.4 3 Sudeste 9 Sur 0 -- -- 79
2020-10-20 04:00:00 20.7 4 Sur 11 Oeste 0 -- -- 77
2020-10-20 03:00:00 20.7 5 Oeste 11 Oeste 0 -- -- 79
2020-10-20 02:00:00 20.3 3 Oeste 5 Oeste 0 -- -- 82
2020-10-20 01:00:00 21.1 2 Sur 10 Sudeste 0 -- -- 85
2020-10-20 00:00:00 21.3 4 Sudoeste 14 Sudeste 0 -- -- 86
2020-10-19 23:00:00 21.3 3 Sudeste 5 Sur 0 -- -- 87
2020-10-19 22:00:00 21.8 0 Calma 10 Noroeste 0 -- -- 84
2020-10-19 21:00:00 22.2 4 Noroeste 7 Noroeste 0 -- -- 82
2020-10-19 20:00:00 22.8 2 Nordeste 5 Nordeste 0 -- -- 83
2020-10-19 19:00:00 23.5 3 Nordeste 13 Este 0 -- -- 75
2020-10-19 18:00:00 24.1 7 Este 17 Este 0 -- -- 71
2020-10-19 17:00:00 24.5 9 Este 19 Este 0 -- -- 70
2020-10-19 16:00:00 24.6 10 Este 19 Este 0 -- -- 69
2020-10-19 15:00:00 25.1 9 Este 17 Este 0 -- -- 69
2020-10-19 14:00:00 24.5 6 Nordeste 16 Nordeste 0 -- -- 70
2020-10-19 13:00:00 23.8 8 Nordeste 15 Nordeste 0 -- -- 71
2020-10-19 12:00:00 23.4 7 Norte 15 Norte 0 -- -- 75
2020-10-19 11:00:00 22.1 5 Norte 9 Nordeste 0 -- -- 78
2020-10-19 10:00:00 20.5 6 Noroeste 11 Noroeste 0 -- -- 85
2020-10-19 09:00:00 18.4 6 Oeste 9 Sudoeste 0 -- -- 88
2020-10-19 08:00:00 17.4 4 Sudoeste 8 Oeste 0 -- -- 88
2020-10-19 07:00:00 17.1 3 Sudoeste 8 Sur 0 -- -- 87
2020-10-19 06:00:00 17.3 2 Sudoeste 8 Sur 0 -- -- 89
2020-10-19 05:00:00 17.2 6 Sur 7 Sur 0 -- -- 84
2020-10-19 04:00:00 17.4 6 Sur 8 Sur 0 -- -- 85
2020-10-19 03:00:00 18 4 Sudoeste 8 Sudoeste 0 -- -- 86
2020-10-19 02:00:00 18.1 3 Sudoeste 8 Sudoeste 0 -- -- 84
2020-10-19 01:00:00 18.3 5 Sudoeste 8 Sur 0 -- -- 84
2020-10-19 00:00:00 18.4 4 Sudoeste 8 Oeste 0 -- -- 85
2020-10-18 23:00:00 18.8 3 Sudoeste 6 Sudoeste 0 -- -- 85
2020-10-18 22:00:00 19.2 3 Sudoeste 7 Sur 0 -- -- 83
2020-10-18 21:00:00 19.4 4 Oeste 7 Sudeste 0 -- -- 81
2020-10-18 20:00:00 20.2 6 Sudeste 13 Sudeste 0 -- -- 80
2020-10-18 19:00:00 20.9 6 Sudeste 18 Sudeste 0 -- -- 77
2020-10-18 18:00:00 21.6 6 Este 12 Este 0 -- -- 75
2020-10-18 17:00:00 21.9 5 Norte 18 Este 0 -- -- 74
2020-10-18 16:00:00 22.6 8 Este 22 Este 0 -- -- 70
2020-10-18 15:00:00 21.7 13 Sudeste 23 Sudeste 0 -- -- 72
2020-10-18 14:00:00 21.8 13 Sudeste 28 Sudeste 0 -- -- 71
2020-10-18 13:00:00 23.2 12 Este 27 Sudeste 0 -- -- 67
2020-10-18 12:00:00 21.8 10 Sudeste 19 Este 0 -- -- 72
2020-10-18 11:00:00 21.2 10 Sudeste 19 Sudeste 0 -- -- 73
2020-10-18 10:00:00 18.7 3 Sur 9 Sur 0 -- -- 75
2020-10-18 09:00:00 17 5 Sur 12 Sudoeste 0 -- -- 78
2020-10-18 08:00:00 16.8 5 Sudoeste 10 Sur 0 -- -- 79
2020-10-18 07:00:00 16.5 5 Sur 10 Sur 0 -- -- 81
2020-10-18 06:00:00 16.5 6 Sur 15 Sur 0 -- -- 79
2020-10-18 05:00:00 16.6 8 Sur 13 Sudoeste 0 -- -- 78
2020-10-18 04:00:00 16.6 8 Sur 14 Sur 0 -- -- 81
2020-10-18 03:00:00 16.6 6 Sur 12 Sur 0 -- -- 82
2020-10-18 02:00:00 16.9 7 Sur 12 Sur 0 -- -- 82
2020-10-18 01:00:00 17 6 Sur 12 Sur 0 -- -- 84
2020-10-18 00:00:00 17.3 4 Sur 6 Sur 0 -- -- 86
2020-10-17 23:00:00 17.9 3 Sur 4 Sur 0 -- -- 85
2020-10-17 22:00:00 18.1 3 Sudeste 5 Nordeste 0 -- -- 83
2020-10-17 21:00:00 19 3 Este 7 Este 0 -- -- 80
2020-10-17 20:00:00 19.2 4 Este 9 Nordeste 0 -- -- 78
2020-10-17 19:00:00 19.8 4 Este 11 Este 0 -- -- 76
2020-10-17 18:00:00 20 4 Este 15 Este 0 -- -- 75
2020-10-17 17:00:00 20 4 Este 12 Nordeste 0 -- -- 77
2020-10-17 16:00:00 20.1 6 Nordeste 13 Este 0 -- -- 77
2020-10-17 15:00:00 20.2 5 Este 18 Nordeste 0 -- -- 71
2020-10-17 14:00:00 20.5 9 Nordeste 21 Este 0 -- -- 74
2020-10-17 13:00:00 20.1 8 Nordeste 17 Nordeste 0 -- -- 79
2020-10-17 12:00:00 18.8 4 Este 13 Nordeste 0 -- -- 88
2020-10-17 11:00:00 19.5 7 Nordeste 12 Nordeste 0 -- -- 85
2020-10-17 10:00:00 19.3 2 Este 9 Este 0 -- -- 78
2020-10-17 09:00:00 18.3 4 Sur 9 Sur 0 -- -- 81
2020-10-17 08:00:00 17.8 4 Sudoeste 6 Sur 0 -- -- 86
2020-10-17 07:00:00 18.1 0 Calma 8 Nordeste 0 -- -- 83
2020-10-17 06:00:00 18.8 2 Nordeste 9 Nordeste 0 -- -- 82
2020-10-17 05:00:00 18.9 2 Nordeste 6 Nordeste 0 -- -- 81
2020-10-17 04:00:00 19 0 Calma 7 Este 0 -- -- 82
2020-10-17 03:00:00 19.1 4 Nordeste 9 Este 0 -- -- 82
2020-10-17 02:00:00 19.2 4 Nordeste 12 Nordeste 0 -- -- 80
2020-10-17 01:00:00 19.3 5 Nordeste 8 Nordeste 0 -- -- 81
2020-10-17 00:00:00 19.4 4 Nordeste 14 Nordeste 0 -- -- 80
2020-10-16 23:00:00 19.7 4 Nordeste 14 Nordeste 0 -- -- 78
2020-10-16 22:00:00 19.7 8 Nordeste 17 Nordeste 0 -- -- 78
2020-10-16 21:00:00 19.8 5 Norte 15 Norte 0 -- -- 77
2020-10-16 20:00:00 20 6 Norte 15 Noroeste 0 -- -- 77
2020-10-16 19:00:00 20.3 5 Nordeste 13 Nordeste 0 -- -- 79
2020-10-16 18:00:00 20.8 5 Norte 14 Norte 0 -- -- 72
2020-10-16 17:00:00 21.1 8 Nordeste 18 Nordeste 0 -- -- 72
2020-10-16 16:00:00 22.2 8 Nordeste 22 Nordeste 0 -- -- 69
2020-10-16 15:00:00 22.2 10 Nordeste 19 Nordeste 0 -- -- 69
2020-10-16 14:00:00 21.8 9 Este 21 Este 0 -- -- 70
2020-10-16 13:00:00 21 7 Nordeste 19 Este 0 -- -- 76
2020-10-16 12:00:00 21.1 9 Este 19 Nordeste 0 -- -- 72
2020-10-16 11:00:00 21.2 9 Nordeste 17 Nordeste 0 -- -- 74
2020-10-16 10:00:00 20.3 6 Este 13 Este 0 -- -- 79
2020-10-16 09:00:00 19.2 4 Sudeste 6 Sudeste 0 -- -- 83
2020-10-16 08:00:00 19.1 3 Nordeste 8 Nordeste 0 -- -- 83
2020-10-16 07:00:00 19.4 4 Nordeste 10 Nordeste 0 -- -- 82
2020-10-16 06:00:00 19.4 6 Este 11 Nordeste 0 -- -- 84
2020-10-16 05:00:00 19.5 6 Nordeste 17 Este 0 -- -- 84
2020-10-16 04:00:00 19.7 6 Este 13 Nordeste 0 -- -- 85
2020-10-16 03:00:00 19.8 5 Nordeste 11 Este 0 -- -- 85
2020-10-16 02:00:00 19.7 4 Este 12 Nordeste 0 -- -- 84
2020-10-16 01:00:00 19.8 6 Nordeste 15 Nordeste 0 -- -- 85
2020-10-16 00:00:00 19.9 8 Nordeste 16 Este 0 -- -- 86
2020-10-15 23:00:00 19.9 5 Nordeste 13 Nordeste 0 -- -- 85
2020-10-15 22:00:00 19.9 5 Nordeste 13 Nordeste 0 -- -- 85
2020-10-15 21:00:00 19.9 8 Nordeste 13 Nordeste 0 -- -- 84
2020-10-15 20:00:00 19.8 4 Nordeste 12 Nordeste 0 -- -- 84
2020-10-15 19:00:00 20.5 6 Nordeste 13 Este 0 -- -- 79
2020-10-15 18:00:00 21.1 7 Nordeste 17 Este 0 -- -- 77
2020-10-15 17:00:00 22 10 Este 19 Este 0 -- -- 74
2020-10-15 16:00:00 22 8 Nordeste 21 Nordeste 0 -- -- 73
2020-10-15 15:00:00 21.9 9 Nordeste 22 Este 0 -- -- 73
2020-10-15 14:00:00 23 11 Este 23 Este 0 -- -- 69
2020-10-15 13:00:00 22.7 11 Este 21 Este 0 -- -- 70
2020-10-15 12:00:00 22.3 10 Este 22 Este 0 -- -- 73
2020-10-15 11:00:00 21.8 12 Este 25 Este 0 -- -- 72
2020-10-15 10:00:00 19.9 5 Nordeste 10 Nordeste 0 -- -- 81
2020-10-15 09:00:00 18.9 3 Sur 8 Sur 0 -- -- 84
2020-10-15 08:00:00 18.3 5 Noroeste 8 Oeste 0 -- -- 84
2020-10-15 07:00:00 18.2 2 Oeste 6 Sur 0 -- -- 84
2020-10-15 06:00:00 18.8 4 Nordeste 9 Este 0 -- -- 85
2020-10-15 05:00:00 18.6 5 Este 12 Este 0 -- -- 87
2020-10-15 04:00:00 18.4 4 Sur 8 Este 0 -- -- 87
2020-10-15 03:00:00 18.9 3 Este 8 Este 0 -- -- 87
2020-10-15 02:00:00 19.2 3 Sudeste 8 Este -- -- -- 86
2020-10-15 01:00:00 19.4 4 Este 8 Nordeste 0 -- -- 87
2020-10-15 00:00:00 19.6 3 Nordeste 10 Noroeste 0 -- -- 87
2020-10-14 23:00:00 19.6 3 Noroeste 11 Norte 0 -- -- 86
2020-10-14 22:00:00 19.7 5 Noroeste 9 Noroeste 0 -- -- 84
2020-10-14 21:00:00 20 3 Norte 10 Nordeste 0 -- -- 84
2020-10-14 20:00:00 20.4 5 Nordeste 14 Nordeste 0 -- -- 82
2020-10-14 19:00:00 21.2 5 Nordeste 15 Nordeste 0 -- -- 74
2020-10-14 18:00:00 22.2 6 Nordeste 15 Este 0 -- -- 67
2020-10-14 17:00:00 22.6 8 Nordeste 18 Nordeste 0 -- -- 67
2020-10-14 16:00:00 23.1 9 Este 20 Este 0 -- -- 64
2020-10-14 15:00:00 23.5 11 Este 21 Este 0 -- -- 73
2020-10-14 14:00:00 23.2 10 Este 20 Este 0 -- -- 76
2020-10-14 13:00:00 23.8 9 Este 16 Este 0 -- -- 68
2020-10-14 12:00:00 23.7 7 Nordeste 13 Nordeste 0 -- -- 70
2020-10-14 11:00:00 22.1 3 Noroeste 9 Norte 0 -- -- 78
2020-10-14 10:00:00 20.2 3 Nordeste 7 Nordeste 0 -- -- 89
2020-10-14 09:00:00 19.4 0 Calma 6 Sudeste 0 -- -- 92
2020-10-14 08:00:00 19 3 Sudeste 11 Sudeste 0 -- -- 92
2020-10-14 07:00:00 17.8 5 Sur 9 Sur 0 -- -- 85
2020-10-14 06:00:00 19.2 2 Sudeste 9 Sudeste 0 -- -- 88
2020-10-14 05:00:00 19.6 4 Sudeste 9 Este 0 -- -- 87
2020-10-14 04:00:00 19.9 5 Este 9 Nordeste 0 -- -- 74
2020-10-14 03:00:00 20.4 5 Sudeste 12 Sudeste 0 -- -- 59
2020-10-14 02:00:00 20.3 4 Sudeste 12 Sudeste 0 -- -- 65
2020-10-14 01:00:00 19.5 4 Sur 9 Sudoeste 0 -- -- 71
2020-10-14 00:00:00 19.9 0 Calma 4 Noroeste 0 -- -- 86
2020-10-13 23:00:00 20.3 2 Sudoeste 8 Nordeste 0 -- -- 82
2020-10-13 22:00:00 20.8 3 Nordeste 6 Nordeste 0 -- -- 82
2020-10-13 21:00:00 21.3 3 Este 6 Este 0 -- -- 78
2020-10-13 20:00:00 21.8 3 Este 11 Nordeste 0 -- -- 79
2020-10-13 19:00:00 22.6 7 Nordeste 12 Nordeste 0 -- -- 80
2020-10-13 18:00:00 24.3 6 Este 17 Este 0 -- -- 75
2020-10-13 17:00:00 25.6 8 Este 13 Nordeste 0 -- -- 72
2020-10-13 16:00:00 25.5 9 Este 15 Este 0 -- -- 71
2020-10-13 15:00:00 27.6 8 Este 16 Nordeste 0 -- -- 62
2020-10-13 14:00:00 27.5 7 Nordeste 15 Nordeste 0 -- -- 62
2020-10-13 13:00:00 27.1 6 Nordeste 16 Nordeste 0 -- -- 62
2020-10-13 12:00:00 26 10 Este 19 Este 0 -- -- 66
2020-10-13 11:00:00 25.3 5 Noroeste 11 Noroeste 0 -- -- 63
2020-10-13 10:00:00 23.6 4 Sudeste 19 Sudeste 0 -- -- 67
2020-10-13 09:00:00 21 5 Sudeste 17 Sudeste 0 -- -- 84
2020-10-13 08:00:00 20.1 5 Sudeste 9 Este 0 -- -- 84
2020-10-13 07:00:00 19.9 4 Sudeste 6 Sur 0 -- -- 82
2020-10-13 06:00:00 20.2 2 Este 6 Este 0 -- -- 76
2020-10-13 05:00:00 20.6 0 Calma 4 Este 0 -- -- 70
2020-10-13 04:00:00 21.2 0 Calma 4 Noroeste 0 -- -- 59
2020-10-13 03:00:00 -- -- -- -- -- -- -- -- --
2020-10-13 02:00:00 24.5 6 Este 13 Sudeste 0 -- -- 38
2020-10-13 01:00:00 23.7 5 Sur 17 Sur 0 -- -- 51
2020-10-13 00:00:00 -- -- -- -- -- -- -- -- --
2020-10-12 23:00:00 21.6 2 Sur 4 Sur 0 -- -- 70
2020-10-12 22:00:00 21.6 2 Sur 4 Sudoeste 0 -- -- 74
2020-10-12 21:00:00 22.1 0 Calma 5 Este 0 -- -- 79
2020-10-12 20:00:00 22.7 3 Sudeste 8 Este 0 -- -- 79
2020-10-12 19:00:00 23.7 5 Nordeste 13 Este 0 -- -- 76
2020-10-12 18:00:00 25.2 8 Este -- -- 0 -- -- 70
2020-10-12 17:00:00 26.9 9 Este 18 Nordeste 0 -- -- 61
2020-10-12 16:00:00 27.5 9 Este 17 Nordeste 0 -- -- 58
2020-10-12 15:00:00 27.6 9 Este 15 Este 0 -- -- 59
2020-10-12 14:00:00 27.8 9 Este 16 Nordeste 0 -- -- 59
2020-10-12 13:00:00 26.7 9 Este 16 Este 0 -- -- 66
2020-10-12 12:00:00 27 8 Este 14 Este 0 -- -- 65
2020-10-12 11:00:00 25 8 Este 11 Este 0 -- -- 71
2020-10-12 10:00:00 22.4 6 Este 9 Este 0 -- -- 78
2020-10-12 09:00:00 20.1 0 Calma 5 Este 0 -- -- 89
2020-10-12 08:00:00 18.8 2 Sur 5 Sudoeste 0 -- -- 87
2020-10-12 07:00:00 18.9 0 Calma 7 Oeste 0 -- -- 86
2020-10-12 06:00:00 19.4 3 Sudoeste 11 Oeste 0 -- -- 81
2020-10-12 05:00:00 19.6 4 Oeste 15 Oeste 0 -- -- 79
2020-10-12 04:00:00 19.2 8 Oeste 13 Sudoeste 0 -- -- 87
2020-10-12 03:00:00 -- -- -- -- -- -- -- -- --
2020-10-12 02:00:00 20.3 9 Noroeste 19 Noroeste 0 -- -- 89
2020-10-12 01:00:00 20.5 7 Noroeste 15 Noroeste 0 -- -- 89
2020-10-12 00:00:00 20.5 11 Noroeste 15 Noroeste 0 -- -- 88
2020-10-11 23:00:00 20.7 8 Noroeste 14 Noroeste 0 -- -- 87
2020-10-11 22:00:00 20.7 9 Noroeste 17 Noroeste 0 -- -- 88
2020-10-11 21:00:00 20.8 9 Noroeste 17 Noroeste 0 -- -- 87
2020-10-11 20:00:00 -- -- -- -- -- -- -- -- --
2020-10-11 19:00:00 -- -- -- -- -- -- -- -- --
2020-10-11 18:00:00 22 12 Noroeste 20 Nordeste 0 -- -- 81
2020-10-11 17:00:00 23.2 12 Norte 21 Norte 0 -- -- 75
2020-10-11 16:00:00 23.2 11 Norte 20 Norte 0 -- -- 75
2020-10-11 15:00:00 23 10 Noroeste 21 Norte 0 -- -- 77
2020-10-11 14:00:00 23.3 9 Norte 19 Noroeste 0 -- -- 76
2020-10-11 13:00:00 22.1 9 Norte 20 Norte 0 -- -- 80
2020-10-11 12:00:00 22 9 Noroeste 17 Noroeste 0 -- -- 79
2020-10-11 11:00:00 21.3 9 Noroeste 19 Noroeste 0 -- -- 84
2020-10-11 10:00:00 21 10 Noroeste 18 Norte 0 -- -- 82
2020-10-11 09:00:00 19.9 8 Noroeste 15 Noroeste 0 -- -- 87
2020-10-11 08:00:00 19.9 8 Noroeste 15 Noroeste 0 -- -- 87
2020-10-11 07:00:00 20 6 Noroeste 14 Norte 0 -- -- 84
2020-10-11 06:00:00 20 6 Noroeste 14 Norte 0 -- -- 83
2020-10-11 05:00:00 20 9 Noroeste 18 Noroeste 0 -- -- 81
2020-10-11 04:00:00 20 10 Noroeste 21 Noroeste 0 -- -- 83
2020-10-11 03:00:00 20 10 Noroeste 22 Noroeste 0 -- -- 84
2020-10-11 02:00:00 20 8 Noroeste 17 Noroeste 0 -- -- 85
2020-10-11 01:00:00 20 8 Noroeste 15 Noroeste 0 -- -- 85
2020-10-11 00:00:00 20 9 Noroeste 18 Noroeste 0 -- -- 86
2020-10-10 23:00:00 20 10 Noroeste 18 Noroeste 0 -- -- 86
2020-10-10 22:00:00 20.2 10 Noroeste 20 Noroeste 0 -- -- 86
2020-10-10 21:00:00 20.5 12 Noroeste 21 Noroeste 0 -- -- 86
2020-10-10 20:00:00 20.6 10 Noroeste 22 Norte 0 -- -- 82
2020-10-10 19:00:00 21.1 10 Noroeste 22 Noroeste 0 -- -- 81
2020-10-10 18:00:00 21.5 12 Noroeste 22 Noroeste 0 -- -- 76
2020-10-10 17:00:00 22.5 13 Noroeste 25 Noroeste 0 -- -- 72
2020-10-10 16:00:00 23 13 Noroeste 22 Noroeste 0 -- -- 71
2020-10-10 15:00:00 22.5 13 Noroeste 25 Noroeste 0 -- -- 72
2020-10-10 14:00:00 22.9 10 Norte 21 Noroeste 0 -- -- 71
2020-10-10 13:00:00 22.2 10 Noroeste 23 Norte 0 -- -- 75
2020-10-10 12:00:00 21 12 Noroeste 19 Norte 0 -- -- 83
2020-10-10 11:00:00 20.5 10 Noroeste 19 Noroeste 0 -- -- 82
2020-10-10 10:00:00 20.5 8 Norte 15 Norte 0 -- -- 83
2020-10-10 09:00:00 19.8 8 Norte 15 Norte 0 -- -- 87
2020-10-10 08:00:00 19.4 8 Noroeste 17 Noroeste 0 -- -- 90
2020-10-10 07:00:00 19.4 8 Noroeste 16 Noroeste 0 -- -- 89
2020-10-10 06:00:00 19.7 7 Noroeste 21 Oeste 0 -- -- 88
2020-10-10 05:00:00 19.9 9 Norte 20 Noroeste 0 -- -- 87
2020-10-10 04:00:00 19.9 10 Noroeste 20 Norte 0 -- -- 86
2020-10-10 03:00:00 20 13 Noroeste 26 Noroeste 0 -- -- 86
2020-10-10 02:00:00 20 11 Noroeste 18 Noroeste 0 -- -- 91
2020-10-10 01:00:00 19.8 11 Noroeste 23 Oeste 0 -- -- 91
2020-10-10 00:00:00 20 12 Noroeste 26 Noroeste 0 -- -- 85
2020-10-09 23:00:00 20.4 14 Noroeste 25 Noroeste 0 -- -- 85
2020-10-09 22:00:00 20.5 13 Noroeste 22 Noroeste 0 -- -- 89
2020-10-09 21:00:00 20.4 10 Noroeste 24 Noroeste 0 -- -- 89
2020-10-09 20:00:00 20.6 15 Noroeste 32 Noroeste 0 -- -- 85
2020-10-09 19:00:00 20.9 17 Noroeste 27 Noroeste 0 -- -- 86
2020-10-09 18:00:00 21.7 14 Noroeste 25 Noroeste 0 -- -- 84
2020-10-09 17:00:00 22.4 16 Noroeste 27 Noroeste 0 -- -- 77
2020-10-09 16:00:00 23.1 14 Noroeste 26 Noroeste 0 -- -- 77
2020-10-09 15:00:00 21.9 12 Noroeste 21 Noroeste 0 -- -- 82
2020-10-09 14:00:00 22.2 9 Noroeste 19 Noroeste 0 -- -- 81
2020-10-09 13:00:00 21.7 10 Noroeste 20 Noroeste 0 -- -- 80
2020-10-09 12:00:00 20.8 11 Norte 21 Norte 0 -- -- 88
2020-10-09 11:00:00 21.1 10 Noroeste 18 Noroeste 0 -- -- 83
2020-10-09 10:00:00 20.5 8 Noroeste 15 Noroeste 0 -- -- 89
2020-10-09 09:00:00 20.6 8 Noroeste 20 Noroeste 0 -- -- 86
2020-10-09 08:00:00 20.4 12 Noroeste 24 Noroeste 0 -- -- 89
2020-10-09 07:00:00 20.3 12 Noroeste 23 Noroeste 0 -- -- 87
2020-10-09 06:00:00 20.4 12 Noroeste 21 Noroeste 0 -- -- 88
2020-10-09 05:00:00 20.3 10 Noroeste 23 Noroeste 0 -- -- 90
2020-10-09 04:00:00 20.4 11 Noroeste 23 Noroeste 0 -- -- 88
2020-10-09 03:00:00 20.4 11 Noroeste 18 Noroeste 0 -- -- 89
2020-10-09 02:00:00 20.3 9 Noroeste 20 Noroeste 0 -- -- 91
2020-10-09 01:00:00 20.4 10 Noroeste 21 Oeste 0 -- -- 91
2020-10-09 00:00:00 20.2 10 Noroeste 19 Noroeste 0 -- -- 92
2020-10-08 23:00:00 20.4 10 Noroeste 21 Oeste 0 -- -- 91
2020-10-08 22:00:00 20.6 11 Noroeste 22 Noroeste 0 -- -- 89
2020-10-08 21:00:00 20.9 10 Noroeste 19 Noroeste 0 -- -- 88
2020-10-08 20:00:00 21.1 8 Noroeste 18 Noroeste 0 -- -- 89
2020-10-08 19:00:00 22.2 10 Noroeste 19 Noroeste 0 -- -- 84
2020-10-08 18:00:00 23.6 10 Noroeste 18 Noroeste 0 -- -- 77
2020-10-08 17:00:00 24.9 9 Noroeste 16 Noroeste 0 -- -- 70
2020-10-08 16:00:00 25.3 8 Norte 17 Norte 0 -- -- 67
2020-10-08 15:00:00 25.4 7 Nordeste 16 Nordeste 0 -- -- 54
2020-10-08 14:00:00 25.9 8 Nordeste 15 Nordeste 0 -- -- 52
2020-10-08 13:00:00 25.2 5 Norte 15 Norte 0 -- -- 66
2020-10-08 12:00:00 24.3 5 Nordeste 13 Noroeste 0 -- -- 65
2020-10-08 11:00:00 22.7 6 Noroeste 14 Noroeste 0 -- -- 77
2020-10-08 10:00:00 21.3 5 Noroeste 10 Noroeste 0 -- -- 85
2020-10-08 09:00:00 19 4 Oeste 9 Oeste 0 -- -- 85
2020-10-08 08:00:00 18.1 5 Oeste 7 Oeste 0 -- -- 88
2020-10-08 07:00:00 18.2 5 Oeste 9 Sudoeste 0 -- -- 84
2020-10-08 06:00:00 18.7 5 Oeste 10 Sudoeste 0 -- -- 90
2020-10-08 05:00:00 19 5 Oeste 11 Oeste 0 -- -- 92
2020-10-08 04:00:00 19.5 6 Oeste 12 Oeste 0 -- -- 93
2020-10-08 03:00:00 19.8 5 Oeste 14 Oeste 0 -- -- 93
2020-10-08 02:00:00 20.1 8 Noroeste 15 Noroeste 0 -- -- 94
2020-10-08 01:00:00 20.4 7 Noroeste 15 Noroeste 0 -- -- 93
2020-10-08 00:00:00 20.5 9 Noroeste 16 Oeste 0 -- -- 92
2020-10-07 23:00:00 20.5 7 Noroeste 12 Noroeste 0 -- -- 92
2020-10-07 22:00:00 20.8 5 Noroeste 10 Oeste 0 -- -- 90
2020-10-07 21:00:00 21.2 4 Noroeste 8 Noroeste 0 -- -- 88
2020-10-07 20:00:00 21.7 5 Noroeste 9 Norte 0 -- -- 84
2020-10-07 19:00:00 22.9 6 Norte 11 Norte 0 -- -- 80
2020-10-07 18:00:00 24.1 5 Norte 12 Norte 0 -- -- 75
2020-10-07 17:00:00 24.3 6 Nordeste 13 Norte 0 -- -- 72
2020-10-07 16:00:00 24.5 6 Este 13 Nordeste 0 -- -- 71
2020-10-07 15:00:00 24.5 7 Nordeste 16 Nordeste 0 -- -- 72
2020-10-07 14:00:00 24.3 9 Este 15 Nordeste 0 -- -- 74
2020-10-07 13:00:00 23.9 8 Este 15 Este 0 -- -- 76
2020-10-07 12:00:00 23.1 5 Nordeste 15 Nordeste 0 -- -- 78
2020-10-07 11:00:00 22.5 5 Nordeste 9 Norte 0 -- -- 80
2020-10-07 10:00:00 20.8 3 Norte 8 Noroeste 0 -- -- 86
2020-10-07 09:00:00 19 0 Calma 5 Sudoeste 0 -- -- 92
2020-10-07 08:00:00 18 4 Sudoeste 6 Sudoeste 0 -- -- 91
2020-10-07 07:00:00 18.1 3 Sudoeste 6 Sur 0 -- -- 90
2020-10-07 06:00:00 18.5 4 Sur 10 Sur 0 -- -- 90
2020-10-07 05:00:00 19.7 2 Sudeste 8 Sudeste 0 -- -- 92
2020-10-07 04:00:00 19.7 3 Este 7 Este 0 -- -- 91
2020-10-07 03:00:00 19.9 0 Calma 8 Este -- -- -- 91
2020-10-07 02:00:00 19.9 4 Este 7 Este 0 -- -- 91
2020-10-07 01:00:00 19.9 0 Calma 6 Nordeste 0 -- -- 90
2020-10-07 00:00:00 19.7 2 Oeste 9 Noroeste 0 -- -- 89
2020-10-06 23:00:00 19.8 4 Norte 10 Nordeste 0 -- -- 88
2020-10-06 22:00:00 20 6 Norte 10 Norte 0 -- -- 88
2020-10-06 21:00:00 20.1 6 Norte 12 Norte 0 -- -- 86
2020-10-06 20:00:00 20.3 4 Norte 13 Norte 0 -- -- 85
2020-10-06 19:00:00 20.7 5 Norte 14 Nordeste 0 -- -- 84
2020-10-06 18:00:00 21.1 5 Nordeste 14 Norte 0 -- -- 80
2020-10-06 17:00:00 21 7 Norte 17 Nordeste 0 -- -- 82
2020-10-06 16:00:00 21.1 6 Nordeste 16 Nordeste 0 -- -- 83
2020-10-06 15:00:00 21 6 Nordeste 15 Nordeste 0 -- -- 82
2020-10-06 14:00:00 21.1 6 Nordeste 16 Nordeste 0 -- -- 81
2020-10-06 13:00:00 21.3 7 Norte 15 Norte 0 -- -- 78
2020-10-06 12:00:00 20.7 5 Nordeste 14 Nordeste 0 -- -- 83
2020-10-06 11:00:00 19.9 6 Norte 12 Nordeste 0 -- -- 86
2020-10-06 10:00:00 19.9 5 Nordeste 11 Nordeste 0 -- -- 85
2020-10-06 09:00:00 19.4 4 Norte 8 Nordeste 0 -- -- 86
2020-10-06 08:00:00 19.2 5 Norte 12 Nordeste 0 -- -- 85
2020-10-06 07:00:00 19.2 5 Nordeste 12 Nordeste 0.2 -- -- 87
2020-10-06 06:00:00 19.5 8 Nordeste 14 Este 0 -- -- 85
2020-10-06 05:00:00 19.7 5 Nordeste 13 Nordeste 0 -- -- 85
2020-10-06 04:00:00 19.7 6 Nordeste 17 Nordeste 0 -- -- 86
2020-10-06 03:00:00 19.8 6 Nordeste 14 Nordeste 0 -- -- 86
2020-10-06 02:00:00 19.9 6 Nordeste 15 Nordeste 0 -- -- 88
2020-10-06 01:00:00 20 8 Nordeste 19 Nordeste 0 -- -- 88
2020-10-06 00:00:00 20.2 6 Nordeste 14 Este 0 -- -- 88
2020-10-05 23:00:00 20.3 8 Nordeste 15 Nordeste 0 -- -- 86
2020-10-05 22:00:00 20.4 8 Nordeste 15 Nordeste 0 -- -- 85
2020-10-05 21:00:00 20.5 6 Nordeste 15 Este 0 -- -- 84
2020-10-05 20:00:00 20.6 5 Nordeste 13 Este 0 -- -- 80
2020-10-05 19:00:00 21 8 Nordeste 19 Este 0 -- -- 76
2020-10-05 18:00:00 21.9 6 Este 14 Norte 0 -- -- 71
2020-10-05 17:00:00 22.2 7 Este 23 Nordeste 0 -- -- 67
2020-10-05 16:00:00 22.3 10 Nordeste 22 Norte 0 -- -- 69
2020-10-05 15:00:00 22.8 6 Nordeste 21 Este 0 -- -- 70
2020-10-05 14:00:00 22.4 9 Nordeste 21 Este 0 -- -- 72
2020-10-05 13:00:00 22.3 8 Nordeste 20 Nordeste 0 -- -- 73
2020-10-05 12:00:00 20.9 9 Nordeste 21 Este 0 -- -- 80
2020-10-05 11:00:00 20.9 9 Este 18 Nordeste 0 -- -- 82
2020-10-05 10:00:00 20 5 Este 11 Nordeste 0 -- -- 87
2020-10-05 09:00:00 19.2 3 Nordeste 9 Norte 0 -- -- 90
2020-10-05 08:00:00 18.8 3 Sur 9 Sur 0 -- -- 91
2020-10-05 07:00:00 18.5 6 Sur 11 Sur 0.2 -- -- 90
2020-10-05 06:00:00 18.7 5 Sudoeste 10 Oeste 0 -- -- 90
2020-10-05 05:00:00 18.7 4 Sudoeste 8 Sur 0.2 -- -- 89
2020-10-05 04:00:00 18.6 3 Sur 10 Oeste 0 -- -- 87
2020-10-05 03:00:00 18.7 3 Oeste 10 Sur 0 -- -- 88
2020-10-05 02:00:00 18.8 5 Sudoeste 7 Sudoeste 0 -- -- 90
2020-10-05 01:00:00 19.3 2 Sur 11 Noroeste 0 -- -- 87
2020-10-05 00:00:00 19 5 Sudoeste 12 Sudoeste 0 -- -- 86
2020-10-04 23:00:00 18.6 5 Sudoeste 14 Sudoeste 0 -- -- 90
2020-10-04 22:00:00 19.6 5 Noroeste 15 Noroeste 0 -- -- 83
2020-10-04 21:00:00 19.8 5 Norte 23 Noroeste 0 -- -- 78
2020-10-04 20:00:00 19.8 11 Noroeste 24 Noroeste 0 -- -- 82
2020-10-04 19:00:00 20.3 13 Noroeste 27 Noroeste 0 -- -- 80
2020-10-04 18:00:00 20.6 13 Norte 28 Noroeste 0.2 -- -- 77
2020-10-04 17:00:00 21 17 Noroeste 32 Noroeste 0 -- -- 76
2020-10-04 16:00:00 21.1 15 Noroeste 27 Noroeste 0 -- -- 83
2020-10-04 15:00:00 20.7 15 Noroeste 27 Noroeste 0 -- -- 87
2020-10-04 14:00:00 20.6 8 Noroeste 20 Norte 0 -- -- 90
2020-10-04 13:00:00 19.8 6 Norte 23 Norte 0.6 -- -- 96
2020-10-04 12:00:00 19.7 6 Nordeste 29 Nordeste 1.2 -- -- 97
2020-10-04 11:00:00 19.4 6 Norte 24 Nordeste 2.6 -- -- 98
2020-10-04 10:00:00 19.5 10 Norte 27 Norte 2.6 -- -- 96
2020-10-04 09:00:00 19.8 9 Oeste 22 Noroeste 0 -- -- 94
2020-10-04 08:00:00 19.7 13 Noroeste 28 Noroeste 0 -- -- 94
2020-10-04 07:00:00 19.4 13 Noroeste 23 Noroeste 0.6 -- -- 97
2020-10-04 06:00:00 19.4 9 Noroeste 26 Oeste 1.2 -- -- 95
2020-10-04 05:00:00 19.6 11 Noroeste 30 Oeste 0 -- -- 93
2020-10-04 04:00:00 19.6 12 Oeste 21 Oeste 0 -- -- 96
2020-10-04 03:00:00 19.4 12 Noroeste 25 Oeste 0.2 -- -- 95
2020-10-04 02:00:00 19.2 10 Noroeste 25 Oeste 0.6 -- -- 95
2020-10-04 01:00:00 19.7 12 Oeste 22 Oeste 0 -- -- 92
2020-10-04 00:00:00 19.6 7 Oeste 18 Noroeste 0 -- -- 92
2020-10-03 23:00:00 19.7 11 Noroeste 19 Noroeste 0.2 -- -- 93
2020-10-03 22:00:00 20 9 Noroeste 22 Noroeste 0.2 -- -- 92
2020-10-03 21:00:00 20 12 Noroeste 21 Noroeste 0.2 -- -- 91
2020-10-03 20:00:00 20.2 10 Noroeste 23 Norte 0.2 -- -- 91
2020-10-03 19:00:00 20.8 13 Noroeste 28 Noroeste 0 -- -- 86
2020-10-03 18:00:00 21.2 16 Noroeste 26 Noroeste 0 -- -- 84
2020-10-03 17:00:00 21.6 15 Noroeste 30 Noroeste 0 -- -- 83
2020-10-03 16:00:00 22.1 18 Noroeste 30 Noroeste 0 -- -- 83
2020-10-03 15:00:00 22.2 17 Noroeste 35 Noroeste 0 -- -- 82
2020-10-03 14:00:00 22.3 20 Noroeste 32 Noroeste 0 -- -- 81
2020-10-03 13:00:00 21.5 17 Noroeste 33 Noroeste 0 -- -- 85
2020-10-03 12:00:00 21.3 18 Noroeste 30 Noroeste 0 -- -- 85
2020-10-03 11:00:00 19.7 12 Noroeste 30 Norte 0.2 -- -- 92
2020-10-03 10:00:00 20.2 13 Noroeste 27 Oeste 0 -- -- 82
2020-10-03 09:00:00 18.5 8 Noroeste 42 Noroeste 0.2 -- -- 93
2020-10-03 08:00:00 20 19 Noroeste 37 Noroeste 0 -- -- 76
2020-10-03 07:00:00 20.1 14 Noroeste 27 Noroeste 0 -- -- 82
2020-10-03 06:00:00 20.2 14 Noroeste 32 Noroeste 0 -- -- 75
2020-10-03 05:00:00 20 12 Noroeste 27 Noroeste 0 -- -- 81
2020-10-03 04:00:00 20.1 13 Noroeste 32 Noroeste 0 -- -- 82
2020-10-03 03:00:00 20.3 15 Noroeste 27 Noroeste 0 -- -- 79
2020-10-03 02:00:00 20.2 14 Noroeste 29 Noroeste 0 -- -- 75
2020-10-03 01:00:00 20.1 16 Noroeste 35 Norte 0 -- -- 79
2020-10-03 00:00:00 20 14 Noroeste 37 Noroeste 0 -- -- 80
2020-10-02 23:00:00 19.9 14 Noroeste 31 Noroeste 0 -- -- 84
2020-10-02 22:00:00 20 12 Noroeste 33 Noroeste 0 -- -- 87
2020-10-02 21:00:00 19.9 15 Noroeste 27 Oeste 0 -- -- 90
2020-10-02 20:00:00 19 9 Noroeste 32 Norte 1 -- -- 93
2020-10-02 19:00:00 20.3 15 Noroeste 36 Noroeste 0 -- -- 86
2020-10-02 18:00:00 21 18 Noroeste 35 Noroeste 0 -- -- 82
2020-10-02 17:00:00 20.2 17 Noroeste 38 Noroeste 0.2 -- -- 82
2020-10-02 16:00:00 20.9 22 Noroeste 46 Noroeste 0 -- -- 82
2020-10-02 15:00:00 22.8 18 Noroeste 30 Noroeste 0 -- -- 67
2020-10-02 14:00:00 23.1 17 Noroeste 29 Norte 0 -- -- 66
2020-10-02 13:00:00 21.5 14 Noroeste 26 Noroeste 0 -- -- 75
2020-10-02 12:00:00 22.3 12 Noroeste 23 Noroeste 0 -- -- 68
2020-10-02 11:00:00 21.3 13 Noroeste 26 Noroeste 0 -- -- 66
2020-10-02 10:00:00 20.4 14 Noroeste 29 Norte 0 -- -- 66
2020-10-02 09:00:00 20 13 Noroeste 25 Noroeste 0 -- -- 70
2020-10-02 08:00:00 19.7 8 Noroeste 18 Noroeste 0 -- -- 77
2020-10-02 07:00:00 18.9 8 Noroeste 18 Oeste 0 -- -- 80
2020-10-02 06:00:00 17.9 8 Oeste 28 Norte 0.2 -- -- 91
2020-10-02 05:00:00 19.3 8 Noroeste 18 Noroeste 0 -- -- 83
2020-10-02 04:00:00 19.4 14 Noroeste 31 Noroeste 0 -- -- 82
2020-10-02 03:00:00 20 12 Noroeste 27 Noroeste 0 -- -- 78
2020-10-02 02:00:00 20.5 9 Noroeste 20 Noroeste 0 -- -- 70
2020-10-02 01:00:00 20.6 8 Noroeste 22 Norte 0 -- -- 70
2020-10-02 00:00:00 20.6 10 Norte 26 Noroeste 0 -- -- 83
2020-10-01 23:00:00 20.5 12 Noroeste 24 Norte 0 -- -- 85
2020-10-01 22:00:00 20.4 11 Noroeste 21 Noroeste 0 -- -- 84
2020-10-01 21:00:00 20.5 14 Noroeste 22 Noroeste 0 -- -- 80
2020-10-01 20:00:00 20.7 13 Noroeste 24 Noroeste 0 -- -- 79
2020-10-01 19:00:00 21 14 Noroeste 25 Noroeste 0 -- -- 77
2020-10-01 18:00:00 21.5 15 Noroeste -- -- 0 -- -- 76
2020-10-01 17:00:00 21.9 17 Noroeste 29 Noroeste 0 -- -- 75
2020-10-01 16:00:00 22.3 14 Norte 30 Noroeste 0 -- -- 69
2020-10-01 15:00:00 23 18 Noroeste 32 Noroeste 0 -- -- 67
2020-10-01 14:00:00 22.8 15 Noroeste 28 Noroeste 0 -- -- 69
2020-10-01 13:00:00 22.9 14 Noroeste 28 Noroeste 0 -- -- 66
2020-10-01 12:00:00 21.6 12 Noroeste 21 Norte 0 -- -- 73
2020-10-01 11:00:00 21.3 11 Norte 24 Noroeste 0 -- -- 74
2020-10-01 10:00:00 20.2 11 Noroeste 20 Noroeste 0 -- -- 86
2020-10-01 09:00:00 19.7 10 Noroeste 18 Noroeste 0 -- -- 85
2020-10-01 08:00:00 19.4 7 Noroeste 17 Noroeste 0 -- -- 86
2020-10-01 07:00:00 19.6 10 Noroeste 17 Noroeste 0 -- -- 83
2020-10-01 06:00:00 19.5 8 Oeste 12 Oeste 0 -- -- 83
2020-10-01 05:00:00 19.5 6 Noroeste 15 Noroeste 0 -- -- 84
2020-10-01 04:00:00 19.5 6 Noroeste 12 Noroeste 0 -- -- 85
2020-10-01 03:00:00 19.6 7 Noroeste 18 Noroeste 0 -- -- 84
2020-10-01 02:00:00 19.8 11 Noroeste 15 Noroeste 0 -- -- 84
2020-10-01 01:00:00 19.9 9 Noroeste 18 Noroeste 0 -- -- 84
2020-10-01 00:00:00 20.1 11 Noroeste 20 Noroeste 0 -- -- 81
2020-09-30 23:00:00 20.1 10 Noroeste 17 Norte 0 -- -- 81
2020-09-30 22:00:00 20.2 10 Noroeste 19 Noroeste 0 -- -- 81
2020-09-30 21:00:00 20.2 11 Noroeste 20 Noroeste 0 -- -- 79
2020-09-30 20:00:00 20.4 14 Noroeste 22 Noroeste 0 -- -- 80
2020-09-30 19:00:00 20.9 12 Noroeste 25 Noroeste 0 -- -- 79
2020-09-30 18:00:00 21.3 14 Noroeste 23 Norte 0 -- -- 75
2020-09-30 17:00:00 21.7 14 Norte 30 Noroeste 0 -- -- 75
2020-09-30 16:00:00 22.7 14 Noroeste 25 Noroeste 0 -- -- 69
2020-09-30 15:00:00 23.8 13 Noroeste 22 Norte 0 -- -- 61
2020-09-30 14:00:00 24 11 Norte 23 Norte 0 -- -- 62
2020-09-30 13:00:00 23.4 12 Norte 21 Norte 0 -- -- 66
2020-09-30 12:00:00 22.9 11 Noroeste 23 Norte 0 -- -- 65
2020-09-30 11:00:00 22.3 8 Noroeste 16 Norte 0 -- -- 66
2020-09-30 10:00:00 21.1 11 Noroeste 19 Noroeste 0 -- -- 75
2020-09-30 09:00:00 19.8 5 Oeste 13 Oeste 0 -- -- 82
2020-09-30 08:00:00 19 6 Oeste 13 Noroeste 0 -- -- 84
2020-09-30 07:00:00 19.1 6 Noroeste 13 Noroeste 0 -- -- 83
2020-09-30 06:00:00 19.1 5 Noroeste 11 Noroeste 0 -- -- 84
2020-09-30 05:00:00 18.6 3 Sudoeste 9 Oeste 0 -- -- 85
2020-09-30 04:00:00 18.7 3 Oeste 6 Oeste 0 -- -- 84
2020-09-30 03:00:00 19 4 Sudoeste 6 Sudoeste 0 -- -- 84
2020-09-30 02:00:00 19.5 3 Noroeste 15 Noroeste 0 -- -- 83
2020-09-30 01:00:00 20 6 Noroeste 13 Noroeste 0 -- -- 80
2020-09-30 00:00:00 19.9 6 Noroeste 15 Noroeste 0 -- -- 79